sensor_id;sensor_type;location;lat;lon;timestamp;pressure;altitude;pressure_sealevel;temperature;humidity
50933;BME280;36921;49.006;9.292;2023-04-06T00:00:34;99047.53;;;-1.20;100.00
50933;BME280;36921;49.006;9.292;2023-04-06T00:02:59;99039.34;;;-1.28;100.00
50933;BME280;36921;49.006;9.292;2023-04-06T00:05:24;99038.63;;;-1.30;100.00
50933;BME280;36921;49.006;9.292;2023-04-06T00:07:50;99039.81;;;-1.34;100.00
50933;BME280;36921;49.006;9.292;2023-04-06T00:10:16;99055.75;;;-1.34;100.00
50933;BME280;36921;49.006;9.292;2023-04-06T00:12:41;99033.41;;;-1.32;100.00
50933;BME280;36921;49.006;9.292;2023-04-06T00:15:07;99035.00;;;-1.40;100.00
50933;BME280;36921;49.006;9.292;2023-04-06T00:17:32;99033.66;;;-1.35;100.00
50933;BME280;36921;49.006;9.292;2023-04-06T00:19:58;99014.50;;;-1.38;100.00
50933;BME280;36921;49.006;9.292;2023-04-06T00:22:23;99016.19;;;-1.48;100.00
50933;BME280;36921;49.006;9.292;2023-04-06T00:24:48;99007.03;;;-1.56;100.00
50933;BME280;36921;49.006;9.292;2023-04-06T00:27:13;99016.91;;;-1.58;100.00
50933;BME280;36921;49.006;9.292;2023-04-06T00:29:39;99044.66;;;-1.50;100.00
50933;BME280;36921;49.006;9.292;2023-04-06T00:32:05;99047.19;;;-1.49;100.00
50933;BME280;36921;49.006;9.292;2023-04-06T00:34:30;99036.94;;;-1.53;100.00
50933;BME280;36921;49.006;9.292;2023-04-06T00:37:03;99024.63;;;-1.66;100.00
50933;BME280;36921;49.006;9.292;2023-04-06T00:39:28;99022.81;;;-1.77;100.00
50933;BME280;36921;49.006;9.292;2023-04-06T00:41:54;99041.75;;;-1.59;100.00
50933;BME280;36921;49.006;9.292;2023-04-06T00:44:20;99037.78;;;-1.53;100.00
50933;BME280;36921;49.006;9.292;2023-04-06T00:46:46;99030.78;;;-1.65;100.00
50933;BME280;36921;49.006;9.292;2023-04-06T00:49:12;99018.84;;;-1.82;100.00
50933;BME280;36921;49.006;9.292;2023-04-06T00:51:37;99021.75;;;-1.85;100.00
50933;BME280;36921;49.006;9.292;2023-04-06T00:54:02;99034.75;;;-1.82;100.00
50933;BME280;36921;49.006;9.292;2023-04-06T00:56:28;99038.59;;;-1.86;100.00
50933;BME280;36921;49.006;9.292;2023-04-06T00:58:53;99021.13;;;-2.00;100.00
50933;BME280;36921;49.006;9.292;2023-04-06T01:01:19;99014.25;;;-2.03;100.00
50933;BME280;36921;49.006;9.292;2023-04-06T01:03:45;99018.59;;;-1.90;100.00
50933;BME280;36921;49.006;9.292;2023-04-06T01:06:13;99010.66;;;-1.90;100.00
50933;BME280;36921;49.006;9.292;2023-04-06T01:08:39;98997.25;;;-2.00;100.00
50933;BME280;36921;49.006;9.292;2023-04-06T01:11:04;99023.78;;;-1.89;100.00
50933;BME280;36921;49.006;9.292;2023-04-06T01:13:30;99010.38;;;-2.10;100.00
50933;BME280;36921;49.006;9.292;2023-04-06T01:15:55;98994.84;;;-2.14;100.00
50933;BME280;36921;49.006;9.292;2023-04-06T01:18:28;99008.00;;;-2.02;100.00
50933;BME280;36921;49.006;9.292;2023-04-06T01:20:55;99004.25;;;-1.88;100.00
50933;BME280;36921;49.006;9.292;2023-04-06T01:23:20;99001.13;;;-2.04;100.00
50933;BME280;36921;49.006;9.292;2023-04-06T01:25:45;99001.09;;;-2.15;100.00
50933;BME280;36921;49.006;9.292;2023-04-06T01:28:11;99018.06;;;-2.18;100.00
50933;BME280;36921;49.006;9.292;2023-04-06T01:30:36;99005.28;;;-2.24;100.00
50933;BME280;36921;49.006;9.292;2023-04-06T01:33:01;99004.47;;;-2.13;100.00
50933;BME280;36921;49.006;9.292;2023-04-06T01:35:27;99008.78;;;-2.12;100.00
50933;BME280;36921;49.006;9.292;2023-04-06T01:37:53;99003.00;;;-2.29;100.00
50933;BME280;36921;49.006;9.292;2023-04-06T01:40:18;98967.16;;;-2.57;100.00
50933;BME280;36921;49.006;9.292;2023-04-06T01:42:43;98990.41;;;-2.49;100.00
50933;BME280;36921;49.006;9.292;2023-04-06T01:45:09;98973.53;;;-2.59;100.00
50933;BME280;36921;49.006;9.292;2023-04-06T01:47:35;98989.56;;;-2.50;100.00
50933;BME280;36921;49.006;9.292;2023-04-06T01:50:00;98988.84;;;-2.52;100.00
50933;BME280;36921;49.006;9.292;2023-04-06T01:52:26;98984.03;;;-2.47;100.00
50933;BME280;36921;49.006;9.292;2023-04-06T01:54:51;99000.31;;;-2.40;100.00
50933;BME280;36921;49.006;9.292;2023-04-06T01:57:17;98978.97;;;-2.50;100.00
50933;BME280;36921;49.006;9.292;2023-04-06T01:59:42;98973.41;;;-2.58;100.00
50933;BME280;36921;49.006;9.292;2023-04-06T02:02:08;98969.59;;;-2.54;100.00
50933;BME280;36921;49.006;9.292;2023-04-06T02:04:33;98991.66;;;-2.31;100.00
50933;BME280;36921;49.006;9.292;2023-04-06T02:06:58;98958.84;;;-2.63;100.00
50933;BME280;36921;49.006;9.292;2023-04-06T02:09:24;98980.38;;;-2.68;100.00
50933;BME280;36921;49.006;9.292;2023-04-06T02:11:49;98959.00;;;-2.78;100.00
50933;BME280;36921;49.006;9.292;2023-04-06T02:14:15;98974.00;;;-2.66;100.00
50933;BME280;36921;49.006;9.292;2023-04-06T02:16:40;98986.69;;;-2.47;100.00
50933;BME280;36921;49.006;9.292;2023-04-06T02:19:06;98975.22;;;-2.58;100.00
50933;BME280;36921;49.006;9.292;2023-04-06T02:21:31;98979.19;;;-2.64;100.00
50933;BME280;36921;49.006;9.292;2023-04-06T02:23:56;98985.22;;;-2.62;100.00
50933;BME280;36921;49.006;9.292;2023-04-06T02:26:22;99003.28;;;-2.56;100.00
50933;BME280;36921;49.006;9.292;2023-04-06T02:28:47;98983.25;;;-2.71;100.00
50933;BME280;36921;49.006;9.292;2023-04-06T02:31:12;98996.19;;;-2.55;100.00
50933;BME280;36921;49.006;9.292;2023-04-06T02:33:40;98980.38;;;-2.57;100.00
50933;BME280;36921;49.006;9.292;2023-04-06T02:36:05;98981.38;;;-2.47;100.00
50933;BME280;36921;49.006;9.292;2023-04-06T02:38:31;98983.19;;;-2.47;100.00
50933;BME280;36921;49.006;9.292;2023-04-06T02:40:56;98953.53;;;-2.63;100.00
50933;BME280;36921;49.006;9.292;2023-04-06T02:43:21;98992.22;;;-2.50;100.00
50933;BME280;36921;49.006;9.292;2023-04-06T02:45:47;98972.09;;;-2.52;100.00
50933;BME280;36921;49.006;9.292;2023-04-06T02:48:12;98965.72;;;-2.50;100.00
50933;BME280;36921;49.006;9.292;2023-04-06T02:50:37;98981.53;;;-2.48;100.00
50933;BME280;36921;49.006;9.292;2023-04-06T02:53:02;98970.50;;;-2.66;100.00
50933;BME280;36921;49.006;9.292;2023-04-06T02:55:28;98975.22;;;-2.58;100.00
50933;BME280;36921;49.006;9.292;2023-04-06T02:57:53;98938.25;;;-2.60;100.00
50933;BME280;36921;49.006;9.292;2023-04-06T03:00:18;98973.97;;;-2.30;100.00
50933;BME280;36921;49.006;9.292;2023-04-06T03:02:44;98978.78;;;-2.35;100.00
50933;BME280;36921;49.006;9.292;2023-04-06T03:05:10;98977.66;;;-2.44;100.00
50933;BME280;36921;49.006;9.292;2023-04-06T03:07:35;98981.88;;;-2.42;100.00
50933;BME280;36921;49.006;9.292;2023-04-06T03:10:00;98958.03;;;-2.53;100.00
50933;BME280;36921;49.006;9.292;2023-04-06T03:12:26;98967.44;;;-2.49;100.00
50933;BME280;36921;49.006;9.292;2023-04-06T03:14:51;98969.53;;;-2.65;100.00
50933;BME280;36921;49.006;9.292;2023-04-06T03:17:16;98958.63;;;-2.49;100.00
50933;BME280;36921;49.006;9.292;2023-04-06T03:22:09;98978.22;;;-2.63;100.00
50933;BME280;36921;49.006;9.292;2023-04-06T03:24:35;98978.72;;;-2.58;100.00
50933;BME280;36921;49.006;9.292;2023-04-06T03:27:03;98984.72;;;-2.67;100.00
50933;BME280;36921;49.006;9.292;2023-04-06T03:29:28;98986.41;;;-2.66;100.00
50933;BME280;36921;49.006;9.292;2023-04-06T03:31:53;98985.66;;;-2.68;100.00
50933;BME280;36921;49.006;9.292;2023-04-06T03:34:19;98981.56;;;-2.72;100.00
50933;BME280;36921;49.006;9.292;2023-04-06T03:36:45;98986.38;;;-2.77;100.00
50933;BME280;36921;49.006;9.292;2023-04-06T03:39:10;98987.53;;;-2.81;100.00
50933;BME280;36921;49.006;9.292;2023-04-06T03:41:36;98994.81;;;-2.72;100.00
50933;BME280;36921;49.006;9.292;2023-04-06T03:44:01;98992.38;;;-2.75;100.00
50933;BME280;36921;49.006;9.292;2023-04-06T03:46:26;98990.53;;;-2.62;100.00
50933;BME280;36921;49.006;9.292;2023-04-06T03:48:52;98994.09;;;-2.63;100.00
50933;BME280;36921;49.006;9.292;2023-04-06T03:51:17;98962.34;;;-2.98;100.00
50933;BME280;36921;49.006;9.292;2023-04-06T03:53:43;98991.81;;;-2.92;100.00
50933;BME280;36921;49.006;9.292;2023-04-06T03:56:08;98990.25;;;-2.94;100.00
50933;BME280;36921;49.006;9.292;2023-04-06T03:58:33;98992.78;;;-2.93;100.00
50933;BME280;36921;49.006;9.292;2023-04-06T04:00:59;98996.38;;;-2.94;100.00
50933;BME280;36921;49.006;9.292;2023-04-06T04:03:24;98989.75;;;-2.99;100.00
50933;BME280;36921;49.006;9.292;2023-04-06T04:05:52;99005.66;;;-3.12;100.00
50933;BME280;36921;49.006;9.292;2023-04-06T04:08:17;99008.16;;;-3.22;100.00
50933;BME280;36921;49.006;9.292;2023-04-06T04:10:43;99010.91;;;-3.23;100.00
50933;BME280;36921;49.006;9.292;2023-04-06T04:13:08;99012.31;;;-3.31;100.00
50933;BME280;36921;49.006;9.292;2023-04-06T04:15:33;99008.94;;;-3.33;100.00
50933;BME280;36921;49.006;9.292;2023-04-06T04:17:59;99005.34;;;-3.32;100.00
50933;BME280;36921;49.006;9.292;2023-04-06T04:20:24;99025.81;;;-3.22;100.00
50933;BME280;36921;49.006;9.292;2023-04-06T04:22:50;99015.97;;;-3.20;100.00
50933;BME280;36921;49.006;9.292;2023-04-06T04:25:15;99019.06;;;-3.26;100.00
50933;BME280;36921;49.006;9.292;2023-04-06T04:27:40;99015.69;;;-3.28;100.00
50933;BME280;36921;49.006;9.292;2023-04-06T04:30:06;99024.81;;;-3.33;100.00
50933;BME280;36921;49.006;9.292;2023-04-06T04:32:32;99013.88;;;-3.28;100.00
50933;BME280;36921;49.006;9.292;2023-04-06T04:34:57;99013.88;;;-3.28;100.00
50933;BME280;36921;49.006;9.292;2023-04-06T04:37:22;99018.22;;;-3.27;100.00
50933;BME280;36921;49.006;9.292;2023-04-06T04:39:48;99018.47;;;-3.30;100.00
50933;BME280;36921;49.006;9.292;2023-04-06T04:42:14;99019.53;;;-3.33;100.00
50933;BME280;36921;49.006;9.292;2023-04-06T04:44:39;99014.78;;;-3.40;100.00
50933;BME280;36921;49.006;9.292;2023-04-06T04:47:05;99016.38;;;-3.38;100.00
50933;BME280;36921;49.006;9.292;2023-04-06T04:49:32;99025.66;;;-3.32;100.00
50933;BME280;36921;49.006;9.292;2023-04-06T04:51:58;99023.09;;;-3.34;100.00
50933;BME280;36921;49.006;9.292;2023-04-06T04:54:25;99019.53;;;-3.33;100.00
50933;BME280;36921;49.006;9.292;2023-04-06T04:56:51;99022.88;;;-3.31;100.00
50933;BME280;36921;49.006;9.292;2023-04-06T04:59:17;99017.78;;;-3.21;100.00
50933;BME280;36921;49.006;9.292;2023-04-06T05:01:42;99027.34;;;-3.07;100.00
50933;BME280;36921;49.006;9.292;2023-04-06T05:04:08;99017.56;;;-2.94;100.00
50933;BME280;36921;49.006;9.292;2023-04-06T05:06:33;99022.16;;;-2.96;100.00
50933;BME280;36921;49.006;9.292;2023-04-06T05:08:59;99017.72;;;-2.84;100.00
50933;BME280;36921;49.006;9.292;2023-04-06T05:11:24;99025.56;;;-2.82;100.00
50933;BME280;36921;49.006;9.292;2023-04-06T05:13:50;99026.50;;;-2.83;100.00
50933;BME280;36921;49.006;9.292;2023-04-06T05:16:16;99032.81;;;-2.73;100.00
50933;BME280;36921;49.006;9.292;2023-04-06T05:18:41;99031.09;;;-2.61;100.00
50933;BME280;36921;49.006;9.292;2023-04-06T05:21:07;99039.16;;;-2.52;100.00
50933;BME280;36921;49.006;9.292;2023-04-06T05:23:32;99035.94;;;-2.44;100.00
50933;BME280;36921;49.006;9.292;2023-04-06T05:25:58;99039.72;;;-2.35;100.00
50933;BME280;36921;49.006;9.292;2023-04-06T05:28:23;99039.28;;;-2.18;100.00
50933;BME280;36921;49.006;9.292;2023-04-06T05:30:49;99030.38;;;-2.06;100.00
50933;BME280;36921;49.006;9.292;2023-04-06T05:33:15;99037.66;;;-1.74;100.00
50933;BME280;36921;49.006;9.292;2023-04-06T05:35:42;99025.38;;;-0.54;100.00
50933;BME280;36921;49.006;9.292;2023-04-06T05:38:08;99011.19;;;1.78;100.00
50933;BME280;36921;49.006;9.292;2023-04-06T05:40:34;99028.97;;;3.09;100.00
50933;BME280;36921;49.006;9.292;2023-04-06T05:43:00;99026.81;;;4.20;100.00
50933;BME280;36921;49.006;9.292;2023-04-06T05:45:25;99022.13;;;5.49;100.00
50933;BME280;36921;49.006;9.292;2023-04-06T05:47:51;99025.88;;;6.06;99.29
50933;BME280;36921;49.006;9.292;2023-04-06T05:50:16;99018.53;;;7.11;83.38
50933;BME280;36921;49.006;9.292;2023-04-06T05:52:42;99006.47;;;7.30;74.27
50933;BME280;36921;49.006;9.292;2023-04-06T05:55:09;99023.25;;;7.63;73.21
50933;BME280;36921;49.006;9.292;2023-04-06T05:57:35;99020.56;;;8.77;67.87
50933;BME280;36921;49.006;9.292;2023-04-06T06:00:00;99011.75;;;9.19;64.31
50933;BME280;36921;49.006;9.292;2023-04-06T06:02:26;99014.47;;;9.77;60.35
50933;BME280;36921;49.006;9.292;2023-04-06T06:04:51;99020.91;;;9.76;61.33
50933;BME280;36921;49.006;9.292;2023-04-06T06:07:17;99016.88;;;10.15;58.57
50933;BME280;36921;49.006;9.292;2023-04-06T06:09:42;99014.78;;;11.56;53.83
50933;BME280;36921;49.006;9.292;2023-04-06T06:12:08;99012.13;;;12.69;50.18
50933;BME280;36921;49.006;9.292;2023-04-06T06:14:34;99010.38;;;13.92;47.58
50933;BME280;36921;49.006;9.292;2023-04-06T06:16:59;99012.34;;;13.33;47.43
50933;BME280;36921;49.006;9.292;2023-04-06T06:19:25;99010.31;;;13.28;48.83
50933;BME280;36921;49.006;9.292;2023-04-06T06:21:50;99020.44;;;13.85;48.61
50933;BME280;36921;49.006;9.292;2023-04-06T06:24:15;99015.16;;;13.96;46.26
50933;BME280;36921;49.006;9.292;2023-04-06T06:26:41;99015.53;;;15.79;44.19
50933;BME280;36921;49.006;9.292;2023-04-06T06:29:06;99010.53;;;14.47;44.58
50933;BME280;36921;49.006;9.292;2023-04-06T06:31:32;99018.13;;;15.07;44.14
50933;BME280;36921;49.006;9.292;2023-04-06T06:33:57;99011.91;;;15.85;42.07
50933;BME280;36921;49.006;9.292;2023-04-06T06:36:23;99009.97;;;16.63;41.01
50933;BME280;36921;49.006;9.292;2023-04-06T06:38:49;99008.22;;;16.80;41.19
50933;BME280;36921;49.006;9.292;2023-04-06T06:41:15;99010.66;;;17.17;39.73
50933;BME280;36921;49.006;9.292;2023-04-06T06:43:40;99007.69;;;17.59;39.32
50933;BME280;36921;49.006;9.292;2023-04-06T06:46:06;99017.47;;;18.46;37.94
50933;BME280;36921;49.006;9.292;2023-04-06T06:48:31;99015.97;;;19.33;36.69
50933;BME280;36921;49.006;9.292;2023-04-06T06:50:57;99021.66;;;19.26;37.35
50933;BME280;36921;49.006;9.292;2023-04-06T06:53:23;99011.31;;;19.12;38.24
50933;BME280;36921;49.006;9.292;2023-04-06T06:55:52;99020.25;;;17.72;38.15
50933;BME280;36921;49.006;9.292;2023-04-06T06:58:18;99019.66;;;17.70;38.18
50933;BME280;36921;49.006;9.292;2023-04-06T07:00:55;99023.53;;;17.86;37.77
50933;BME280;36921;49.006;9.292;2023-04-06T07:03:21;99021.41;;;17.47;37.14
50933;BME280;36921;49.006;9.292;2023-04-06T07:06:08;99020.41;;;17.94;37.25
50933;BME280;36921;49.006;9.292;2023-04-06T07:11:12;99000.53;;;18.32;36.94
50933;BME280;36921;49.006;9.292;2023-04-06T07:13:37;99016.72;;;18.34;37.20
50933;BME280;36921;49.006;9.292;2023-04-06T07:16:03;99021.72;;;17.91;37.49
50933;BME280;36921;49.006;9.292;2023-04-06T07:18:28;98999.06;;;17.79;37.16
50933;BME280;36921;49.006;9.292;2023-04-06T07:20:53;99025.94;;;17.70;37.75
50933;BME280;36921;49.006;9.292;2023-04-06T07:23:19;98996.13;;;19.04;36.05
50933;BME280;36921;49.006;9.292;2023-04-06T07:25:44;99006.66;;;20.38;34.28
50933;BME280;36921;49.006;9.292;2023-04-06T07:28:10;99007.94;;;21.57;33.63
50933;BME280;36921;49.006;9.292;2023-04-06T07:30:36;99014.63;;;23.10;32.33
50933;BME280;36921;49.006;9.292;2023-04-06T07:33:02;99014.31;;;23.27;31.72
50933;BME280;36921;49.006;9.292;2023-04-06T07:35:27;99013.56;;;22.14;32.06
50933;BME280;36921;49.006;9.292;2023-04-06T07:37:55;99017.69;;;21.96;32.30
50933;BME280;36921;49.006;9.292;2023-04-06T07:40:21;99022.63;;;20.73;33.43
50933;BME280;36921;49.006;9.292;2023-04-06T07:42:46;99016.22;;;21.67;32.82
50933;BME280;36921;49.006;9.292;2023-04-06T07:45:12;99013.50;;;23.16;31.04
50933;BME280;36921;49.006;9.292;2023-04-06T07:47:37;99010.03;;;22.59;31.83
50933;BME280;36921;49.006;9.292;2023-04-06T07:50:02;99010.03;;;22.49;32.28
50933;BME280;36921;49.006;9.292;2023-04-06T07:52:28;99009.88;;;23.91;31.88
50933;BME280;36921;49.006;9.292;2023-04-06T07:54:53;98996.63;;;25.63;30.09
50933;BME280;36921;49.006;9.292;2023-04-06T07:57:18;99014.44;;;23.61;30.61
50933;BME280;36921;49.006;9.292;2023-04-06T07:59:44;98996.34;;;24.92;30.43
50933;BME280;36921;49.006;9.292;2023-04-06T08:02:10;98999.47;;;24.17;30.44
50933;BME280;36921;49.006;9.292;2023-04-06T08:04:35;99000.22;;;24.27;30.56
50933;BME280;36921;49.006;9.292;2023-04-06T08:07:00;98995.66;;;24.47;29.65
50933;BME280;36921;49.006;9.292;2023-04-06T08:09:26;98999.59;;;24.36;28.82
50933;BME280;36921;49.006;9.292;2023-04-06T08:11:51;99000.97;;;24.73;27.83
50933;BME280;36921;49.006;9.292;2023-04-06T08:14:17;99008.88;;;24.84;27.43
50933;BME280;36921;49.006;9.292;2023-04-06T08:16:42;99001.97;;;24.18;26.48
50933;BME280;36921;49.006;9.292;2023-04-06T08:19:07;98987.09;;;23.59;27.56
50933;BME280;36921;49.006;9.292;2023-04-06T08:21:35;98998.94;;;25.07;26.12
50933;BME280;36921;49.006;9.292;2023-04-06T08:24:00;98999.56;;;24.41;27.12
50933;BME280;36921;49.006;9.292;2023-04-06T08:26:26;99003.91;;;24.13;26.91
50933;BME280;36921;49.006;9.292;2023-04-06T08:28:52;98999.16;;;24.23;27.15
50933;BME280;36921;49.006;9.292;2023-04-06T08:31:17;98993.38;;;24.54;27.11
50933;BME280;36921;49.006;9.292;2023-04-06T08:33:42;98994.19;;;25.13;26.95
50933;BME280;36921;49.006;9.292;2023-04-06T08:36:12;99000.09;;;24.48;26.51
50933;BME280;36921;49.006;9.292;2023-04-06T08:38:38;99002.75;;;26.02;26.07
50933;BME280;36921;49.006;9.292;2023-04-06T08:41:15;98995.28;;;25.79;26.66
50933;BME280;36921;49.006;9.292;2023-04-06T08:44:03;98999.91;;;24.68;26.82
50933;BME280;36921;49.006;9.292;2023-04-06T08:46:30;99006.81;;;27.36;25.32
50933;BME280;36921;49.006;9.292;2023-04-06T08:49:02;99006.13;;;25.99;26.19
50933;BME280;36921;49.006;9.292;2023-04-06T08:51:29;98999.75;;;25.56;26.08
50933;BME280;36921;49.006;9.292;2023-04-06T08:53:56;99001.56;;;25.66;26.22
50933;BME280;36921;49.006;9.292;2023-04-06T08:56:27;98998.72;;;26.47;24.76
50933;BME280;36921;49.006;9.292;2023-04-06T08:58:53;99003.25;;;25.43;26.09
50933;BME280;36921;49.006;9.292;2023-04-06T09:01:26;98971.69;;;27.40;24.73
50933;BME280;36921;49.006;9.292;2023-04-06T09:03:56;98991.78;;;25.73;25.71
50933;BME280;36921;49.006;9.292;2023-04-06T09:06:22;98986.69;;;26.98;25.45
50933;BME280;36921;49.006;9.292;2023-04-06T09:08:48;98959.94;;;28.07;24.82
50933;BME280;36921;49.006;9.292;2023-04-06T09:11:14;98967.88;;;26.81;25.16
50933;BME280;36921;49.006;9.292;2023-04-06T09:16:11;98959.31;;;27.60;23.89
50933;BME280;36921;49.006;9.292;2023-04-06T09:18:36;98971.84;;;26.75;24.55
50933;BME280;36921;49.006;9.292;2023-04-06T09:21:05;98976.94;;;28.06;24.22
50933;BME280;36921;49.006;9.292;2023-04-06T09:23:31;98976.34;;;26.24;24.41
50933;BME280;36921;49.006;9.292;2023-04-06T09:26:07;98959.78;;;27.40;24.91
50933;BME280;36921;49.006;9.292;2023-04-06T09:31:21;98977.34;;;26.47;24.27
50933;BME280;36921;49.006;9.292;2023-04-06T09:33:46;98976.22;;;27.50;23.82
50933;BME280;36921;49.006;9.292;2023-04-06T09:36:12;98959.88;;;27.35;23.48
50933;BME280;36921;49.006;9.292;2023-04-06T09:38:54;98969.53;;;26.96;23.41
50933;BME280;36921;49.006;9.292;2023-04-06T09:44:13;98961.81;;;25.75;22.90
50933;BME280;36921;49.006;9.292;2023-04-06T09:46:41;98969.84;;;23.88;24.37
50933;BME280;36921;49.006;9.292;2023-04-06T09:49:08;98964.13;;;26.06;22.46
50933;BME280;36921;49.006;9.292;2023-04-06T09:51:39;98949.25;;;24.68;24.38
50933;BME280;36921;49.006;9.292;2023-04-06T09:54:07;98952.31;;;24.03;24.92
50933;BME280;36921;49.006;9.292;2023-04-06T09:59:21;98957.47;;;25.88;23.39
50933;BME280;36921;49.006;9.292;2023-04-06T10:01:51;98967.31;;;25.38;24.30
50933;BME280;36921;49.006;9.292;2023-04-06T10:04:55;98960.09;;;27.74;22.73
50933;BME280;36921;49.006;9.292;2023-04-06T10:07:11;98943.53;;;25.93;23.39
50933;BME280;36921;49.006;9.292;2023-04-06T10:09:38;98949.00;;;25.42;23.46
50933;BME280;36921;49.006;9.292;2023-04-06T10:12:06;98945.78;;;26.10;23.37
50933;BME280;36921;49.006;9.292;2023-04-06T10:14:35;98971.94;;;24.94;24.42
50933;BME280;36921;49.006;9.292;2023-04-06T10:17:04;98957.75;;;24.77;25.10
50933;BME280;36921;49.006;9.292;2023-04-06T10:19:39;98951.84;;;27.47;23.94
50933;BME280;36921;49.006;9.292;2023-04-06T10:22:08;98936.28;;;30.39;21.48
50933;BME280;36921;49.006;9.292;2023-04-06T10:24:35;98954.38;;;30.33;21.77
50933;BME280;36921;49.006;9.292;2023-04-06T10:27:01;98947.00;;;25.85;23.48
50933;BME280;36921;49.006;9.292;2023-04-06T10:29:27;98950.69;;;26.46;22.60
50933;BME280;36921;49.006;9.292;2023-04-06T10:31:53;98951.50;;;26.33;23.21
50933;BME280;36921;49.006;9.292;2023-04-06T10:34:20;98955.06;;;27.76;23.36
50933;BME280;36921;49.006;9.292;2023-04-06T10:36:45;98949.03;;;28.42;22.46
50933;BME280;36921;49.006;9.292;2023-04-06T10:39:11;98942.38;;;26.65;22.65
50933;BME280;36921;49.006;9.292;2023-04-06T10:41:42;98951.41;;;28.04;22.27
50933;BME280;36921;49.006;9.292;2023-04-06T10:44:08;98947.16;;;26.27;23.69
50933;BME280;36921;49.006;9.292;2023-04-06T10:46:52;98948.38;;;28.59;23.28
50933;BME280;36921;49.006;9.292;2023-04-06T10:49:18;98943.25;;;28.92;23.12
50933;BME280;36921;49.006;9.292;2023-04-06T10:51:43;98944.19;;;28.25;21.21
50933;BME280;36921;49.006;9.292;2023-04-06T10:54:09;98933.25;;;27.84;22.11
50933;BME280;36921;49.006;9.292;2023-04-06T10:56:37;98940.56;;;27.66;21.97
50933;BME280;36921;49.006;9.292;2023-04-06T10:59:03;98923.34;;;27.78;22.88
50933;BME280;36921;49.006;9.292;2023-04-06T11:01:29;98925.34;;;28.22;22.72
50933;BME280;36921;49.006;9.292;2023-04-06T11:03:56;98912.66;;;30.19;21.10
50933;BME280;36921;49.006;9.292;2023-04-06T11:06:27;98936.88;;;31.90;21.01
50933;BME280;36921;49.006;9.292;2023-04-06T11:08:54;98925.44;;;32.82;19.37
50933;BME280;36921;49.006;9.292;2023-04-06T11:11:22;98923.44;;;34.65;19.37
50933;BME280;36921;49.006;9.292;2023-04-06T11:13:54;98926.31;;;31.53;20.00
50933;BME280;36921;49.006;9.292;2023-04-06T11:16:21;98921.47;;;31.62;19.59
50933;BME280;36921;49.006;9.292;2023-04-06T11:18:57;98928.56;;;28.38;21.06
50933;BME280;36921;49.006;9.292;2023-04-06T11:21:36;98935.59;;;27.90;21.36
50933;BME280;36921;49.006;9.292;2023-04-06T11:24:14;98932.66;;;25.78;22.57
50933;BME280;36921;49.006;9.292;2023-04-06T11:26:47;98908.94;;;25.53;22.53
50933;BME280;36921;49.006;9.292;2023-04-06T11:29:15;98910.34;;;24.83;23.09
50933;BME280;36921;49.006;9.292;2023-04-06T11:32:02;98916.47;;;24.56;22.89
50933;BME280;36921;49.006;9.292;2023-04-06T11:34:30;98910.47;;;25.78;22.90
50933;BME280;36921;49.006;9.292;2023-04-06T11:37:03;98908.06;;;24.90;22.94
50933;BME280;36921;49.006;9.292;2023-04-06T11:39:36;98908.06;;;26.42;23.13
50933;BME280;36921;49.006;9.292;2023-04-06T11:42:02;98903.19;;;27.22;22.58
50933;BME280;36921;49.006;9.292;2023-04-06T11:44:29;98885.94;;;29.00;22.70
50933;BME280;36921;49.006;9.292;2023-04-06T11:46:56;98886.41;;;29.59;21.59
50933;BME280;36921;49.006;9.292;2023-04-06T11:49:26;98877.91;;;29.90;20.41
50933;BME280;36921;49.006;9.292;2023-04-06T11:51:51;98893.59;;;28.01;21.08
50933;BME280;36921;49.006;9.292;2023-04-06T11:54:16;98883.72;;;26.39;21.90
50933;BME280;36921;49.006;9.292;2023-04-06T11:56:42;98890.03;;;24.93;23.67
50933;BME280;36921;49.006;9.292;2023-04-06T11:59:11;98880.88;;;26.11;23.48
50933;BME280;36921;49.006;9.292;2023-04-06T12:01:44;98868.75;;;24.69;22.98
50933;BME280;36921;49.006;9.292;2023-04-06T12:04:10;98892.44;;;22.89;24.14
50933;BME280;36921;49.006;9.292;2023-04-06T12:06:35;98900.78;;;21.40;25.09
50933;BME280;36921;49.006;9.292;2023-04-06T12:09:01;98876.81;;;21.31;25.46
50933;BME280;36921;49.006;9.292;2023-04-06T12:11:26;98890.13;;;22.36;24.91
50933;BME280;36921;49.006;9.292;2023-04-06T12:13:51;98883.81;;;22.20;25.04
50933;BME280;36921;49.006;9.292;2023-04-06T12:16:16;98870.50;;;23.23;25.88
50933;BME280;36921;49.006;9.292;2023-04-06T12:18:44;98861.94;;;23.25;23.60
50933;BME280;36921;49.006;9.292;2023-04-06T12:21:09;98871.69;;;23.12;25.17
50933;BME280;36921;49.006;9.292;2023-04-06T12:23:35;98869.16;;;23.60;24.36
50933;BME280;36921;49.006;9.292;2023-04-06T12:26:00;98855.59;;;24.03;23.73
50933;BME280;36921;49.006;9.292;2023-04-06T12:28:26;98858.50;;;24.70;23.46
50933;BME280;36921;49.006;9.292;2023-04-06T12:30:52;98863.91;;;25.80;23.23
50933;BME280;36921;49.006;9.292;2023-04-06T12:33:18;98866.00;;;24.88;23.00
50933;BME280;36921;49.006;9.292;2023-04-06T12:35:43;98861.59;;;23.76;22.90
50933;BME280;36921;49.006;9.292;2023-04-06T12:38:09;98852.69;;;23.45;23.81
50933;BME280;36921;49.006;9.292;2023-04-06T12:40:38;98859.25;;;24.76;23.04
50933;BME280;36921;49.006;9.292;2023-04-06T12:43:03;98862.78;;;22.45;23.90
50933;BME280;36921;49.006;9.292;2023-04-06T12:45:30;98851.78;;;25.95;23.92
50933;BME280;36921;49.006;9.292;2023-04-06T12:47:55;98849.44;;;27.99;21.89
50933;BME280;36921;49.006;9.292;2023-04-06T12:50:21;98832.31;;;29.69;22.02
50933;BME280;36921;49.006;9.292;2023-04-06T12:52:47;98835.84;;;30.98;21.12
50933;BME280;36921;49.006;9.292;2023-04-06T12:55:12;98828.66;;;30.97;20.91
50933;BME280;36921;49.006;9.292;2023-04-06T12:57:37;98841.97;;;31.21;20.31
50933;BME280;36921;49.006;9.292;2023-04-06T13:00:04;98836.94;;;30.85;20.64
50933;BME280;36921;49.006;9.292;2023-04-06T13:02:30;98841.66;;;29.82;19.74
50933;BME280;36921;49.006;9.292;2023-04-06T13:04:55;98847.56;;;27.86;20.52
50933;BME280;36921;49.006;9.292;2023-04-06T13:07:21;98832.78;;;25.50;22.94